sensor_id;sensor_type;location;lat;lon;timestamp;P1;durP1;ratioP1;P2;durP2;ratioP2
16272;SDS011;8244;50.044;9.006;2022-07-23T00:01:33;6.60;;;4.97;;
16272;SDS011;8244;50.044;9.006;2022-07-23T00:06:36;5.78;;;4.78;;
16272;SDS011;8244;50.044;9.006;2022-07-23T00:11:38;6.47;;;4.80;;
16272;SDS011;8244;50.044;9.006;2022-07-23T00:16:40;5.80;;;4.50;;
16272;SDS011;8244;50.044;9.006;2022-07-23T00:21:43;6.78;;;4.70;;
16272;SDS011;8244;50.044;9.006;2022-07-23T00:26:44;7.70;;;4.80;;
16272;SDS011;8244;50.044;9.006;2022-07-23T00:31:46;8.25;;;4.75;;
16272;SDS011;8244;50.044;9.006;2022-07-23T00:36:49;8.35;;;4.75;;
16272;SDS011;8244;50.044;9.006;2022-07-23T00:41:53;9.73;;;5.57;;
16272;SDS011;8244;50.044;9.006;2022-07-23T00:46:55;6.10;;;4.38;;
16272;SDS011;8244;50.044;9.006;2022-07-23T00:52:02;8.63;;;5.32;;
16272;SDS011;8244;50.044;9.006;2022-07-23T00:57:04;7.13;;;4.85;;
16272;SDS011;8244;50.044;9.006;2022-07-23T01:02:05;6.93;;;4.80;;
16272;SDS011;8244;50.044;9.006;2022-07-23T01:07:09;6.57;;;4.78;;
16272;SDS011;8244;50.044;9.006;2022-07-23T01:12:11;6.10;;;4.80;;
16272;SDS011;8244;50.044;9.006;2022-07-23T01:17:12;8.93;;;5.38;;
16272;SDS011;8244;50.044;9.006;2022-07-23T01:22:16;8.20;;;4.65;;
16272;SDS011;8244;50.044;9.006;2022-07-23T01:27:21;8.45;;;5.10;;
16272;SDS011;8244;50.044;9.006;2022-07-23T01:32:23;7.15;;;5.20;;
16272;SDS011;8244;50.044;9.006;2022-07-23T01:37:25;12.15;;;5.57;;
16272;SDS011;8244;50.044;9.006;2022-07-23T01:42:28;8.13;;;5.18;;
16272;SDS011;8244;50.044;9.006;2022-07-23T01:47:29;8.75;;;5.38;;
16272;SDS011;8244;50.044;9.006;2022-07-23T01:52:31;7.60;;;4.97;;
16272;SDS011;8244;50.044;9.006;2022-07-23T01:57:34;8.73;;;5.60;;
16272;SDS011;8244;50.044;9.006;2022-07-23T02:02:36;7.93;;;5.05;;
16272;SDS011;8244;50.044;9.006;2022-07-23T02:07:38;9.18;;;5.45;;
16272;SDS011;8244;50.044;9.006;2022-07-23T02:12:41;8.10;;;5.30;;
16272;SDS011;8244;50.044;9.006;2022-07-23T02:17:43;8.80;;;6.20;;
16272;SDS011;8244;50.044;9.006;2022-07-23T02:22:44;8.07;;;5.53;;
16272;SDS011;8244;50.044;9.006;2022-07-23T02:27:48;12.70;;;5.65;;
16272;SDS011;8244;50.044;9.006;2022-07-23T02:32:49;7.65;;;5.63;;
16272;SDS011;8244;50.044;9.006;2022-07-23T02:37:51;10.45;;;5.97;;
16272;SDS011;8244;50.044;9.006;2022-07-23T02:42:54;10.37;;;6.40;;
16272;SDS011;8244;50.044;9.006;2022-07-23T02:47:56;9.30;;;6.40;;
16272;SDS011;8244;50.044;9.006;2022-07-23T02:52:58;8.18;;;5.82;;
16272;SDS011;8244;50.044;9.006;2022-07-23T02:58:01;10.48;;;6.25;;
16272;SDS011;8244;50.044;9.006;2022-07-23T03:03:03;9.23;;;6.15;;
16272;SDS011;8244;50.044;9.006;2022-07-23T03:08:04;9.48;;;6.32;;
16272;SDS011;8244;50.044;9.006;2022-07-23T03:13:07;9.40;;;6.68;;
16272;SDS011;8244;50.044;9.006;2022-07-23T03:18:09;10.70;;;6.60;;
16272;SDS011;8244;50.044;9.006;2022-07-23T03:23:11;11.10;;;7.35;;
16272;SDS011;8244;50.044;9.006;2022-07-23T03:28:14;11.45;;;7.20;;
16272;SDS011;8244;50.044;9.006;2022-07-23T03:33:17;10.32;;;7.25;;
16272;SDS011;8244;50.044;9.006;2022-07-23T03:38:20;9.85;;;6.95;;
16272;SDS011;8244;50.044;9.006;2022-07-23T03:43:23;11.48;;;7.78;;
16272;SDS011;8244;50.044;9.006;2022-07-23T03:48:25;15.20;;;8.32;;
16272;SDS011;8244;50.044;9.006;2022-07-23T03:53:27;12.88;;;8.10;;
16272;SDS011;8244;50.044;9.006;2022-07-23T03:58:30;12.38;;;8.15;;
16272;SDS011;8244;50.044;9.006;2022-07-23T04:03:32;11.55;;;7.90;;
16272;SDS011;8244;50.044;9.006;2022-07-23T04:08:34;11.00;;;7.35;;
16272;SDS011;8244;50.044;9.006;2022-07-23T04:13:37;10.85;;;7.25;;
16272;SDS011;8244;50.044;9.006;2022-07-23T04:18:39;11.68;;;8.00;;
16272;SDS011;8244;50.044;9.006;2022-07-23T04:23:40;11.90;;;8.23;;
16272;SDS011;8244;50.044;9.006;2022-07-23T04:28:43;11.88;;;7.72;;
16272;SDS011;8244;50.044;9.006;2022-07-23T04:33:45;12.48;;;7.97;;
16272;SDS011;8244;50.044;9.006;2022-07-23T04:38:47;11.23;;;7.65;;
16272;SDS011;8244;50.044;9.006;2022-07-23T04:43:50;11.75;;;7.47;;
16272;SDS011;8244;50.044;9.006;2022-07-23T04:48:52;13.85;;;7.93;;
16272;SDS011;8244;50.044;9.006;2022-07-23T04:53:54;12.68;;;8.70;;
16272;SDS011;8244;50.044;9.006;2022-07-23T04:58:57;13.77;;;8.00;;
16272;SDS011;8244;50.044;9.006;2022-07-23T05:03:59;13.38;;;8.55;;
16272;SDS011;8244;50.044;9.006;2022-07-23T05:09:01;10.18;;;7.20;;
16272;SDS011;8244;50.044;9.006;2022-07-23T05:14:04;10.60;;;6.97;;
16272;SDS011;8244;50.044;9.006;2022-07-23T05:19:06;12.13;;;6.85;;
16272;SDS011;8244;50.044;9.006;2022-07-23T05:24:10;9.75;;;6.70;;
16272;SDS011;8244;50.044;9.006;2022-07-23T05:29:13;10.77;;;7.20;;
16272;SDS011;8244;50.044;9.006;2022-07-23T05:34:15;11.75;;;7.15;;
16272;SDS011;8244;50.044;9.006;2022-07-23T05:39:16;13.65;;;7.40;;
16272;SDS011;8244;50.044;9.006;2022-07-23T05:44:20;10.65;;;6.50;;
16272;SDS011;8244;50.044;9.006;2022-07-23T05:49:22;12.65;;;6.78;;
16272;SDS011;8244;50.044;9.006;2022-07-23T05:54:23;10.15;;;6.82;;
16272;SDS011;8244;50.044;9.006;2022-07-23T05:59:26;13.15;;;7.55;;
16272;SDS011;8244;50.044;9.006;2022-07-23T06:04:28;9.38;;;6.30;;
16272;SDS011;8244;50.044;9.006;2022-07-23T06:09:30;10.30;;;6.72;;
16272;SDS011;8244;50.044;9.006;2022-07-23T06:14:33;9.27;;;6.53;;
16272;SDS011;8244;50.044;9.006;2022-07-23T06:19:35;12.30;;;6.60;;
16272;SDS011;8244;50.044;9.006;2022-07-23T06:24:37;10.48;;;7.07;;
16272;SDS011;8244;50.044;9.006;2022-07-23T06:29:40;11.63;;;7.00;;
16272;SDS011;8244;50.044;9.006;2022-07-23T06:34:42;9.05;;;6.47;;
16272;SDS011;8244;50.044;9.006;2022-07-23T06:39:44;9.20;;;6.40;;
16272;SDS011;8244;50.044;9.006;2022-07-23T06:44:47;8.95;;;6.40;;
16272;SDS011;8244;50.044;9.006;2022-07-23T06:49:49;11.30;;;6.82;;
16272;SDS011;8244;50.044;9.006;2022-07-23T06:54:51;10.02;;;5.85;;
16272;SDS011;8244;50.044;9.006;2022-07-23T06:59:54;10.48;;;6.05;;
16272;SDS011;8244;50.044;9.006;2022-07-23T07:04:56;11.00;;;6.35;;
16272;SDS011;8244;50.044;9.006;2022-07-23T07:09:57;8.63;;;6.03;;
16272;SDS011;8244;50.044;9.006;2022-07-23T07:15:01;8.93;;;6.25;;
16272;SDS011;8244;50.044;9.006;2022-07-23T07:20:03;9.10;;;6.07;;
16272;SDS011;8244;50.044;9.006;2022-07-23T07:25:06;9.82;;;5.78;;
16272;SDS011;8244;50.044;9.006;2022-07-23T07:30:10;7.10;;;4.97;;
16272;SDS011;8244;50.044;9.006;2022-07-23T07:35:13;6.80;;;4.70;;
16272;SDS011;8244;50.044;9.006;2022-07-23T07:40:15;9.95;;;5.45;;
16272;SDS011;8244;50.044;9.006;2022-07-23T07:45:19;7.13;;;4.90;;
16272;SDS011;8244;50.044;9.006;2022-07-23T07:50:21;5.88;;;4.35;;
16272;SDS011;8244;50.044;9.006;2022-07-23T07:55:23;9.55;;;4.85;;
16272;SDS011;8244;50.044;9.006;2022-07-23T08:00:26;5.22;;;4.13;;
16272;SDS011;8244;50.044;9.006;2022-07-23T08:05:28;6.45;;;4.30;;
16272;SDS011;8244;50.044;9.006;2022-07-23T08:10:31;6.18;;;4.13;;
16272;SDS011;8244;50.044;9.006;2022-07-23T08:15:34;5.25;;;4.15;;
16272;SDS011;8244;50.044;9.006;2022-07-23T08:20:36;6.50;;;4.72;;
16272;SDS011;8244;50.044;9.006;2022-07-23T08:25:38;6.75;;;4.53;;
16272;SDS011;8244;50.044;9.006;2022-07-23T08:30:43;7.32;;;4.80;;
16272;SDS011;8244;50.044;9.006;2022-07-23T08:35:46;6.40;;;4.82;;
16272;SDS011;8244;50.044;9.006;2022-07-23T08:40:50;5.70;;;4.20;;
16272;SDS011;8244;50.044;9.006;2022-07-23T08:45:55;8.88;;;4.70;;
16272;SDS011;8244;50.044;9.006;2022-07-23T08:50:58;5.65;;;4.45;;
16272;SDS011;8244;50.044;9.006;2022-07-23T08:56:02;7.75;;;4.60;;
16272;SDS011;8244;50.044;9.006;2022-07-23T09:01:06;7.57;;;4.90;;
16272;SDS011;8244;50.044;9.006;2022-07-23T09:06:08;8.30;;;4.18;;
16272;SDS011;8244;50.044;9.006;2022-07-23T09:11:10;7.30;;;4.40;;
16272;SDS011;8244;50.044;9.006;2022-07-23T09:16:17;6.97;;;4.78;;
16272;SDS011;8244;50.044;9.006;2022-07-23T09:21:21;8.10;;;4.13;;
16272;SDS011;8244;50.044;9.006;2022-07-23T09:26:25;5.28;;;4.00;;
16272;SDS011;8244;50.044;9.006;2022-07-23T09:31:46;9.05;;;4.70;;
16272;SDS011;8244;50.044;9.006;2022-07-23T09:36:50;6.00;;;4.35;;
16272;SDS011;8244;50.044;9.006;2022-07-23T09:41:53;6.60;;;4.50;;
16272;SDS011;8244;50.044;9.006;2022-07-23T09:46:58;5.78;;;3.83;;
16272;SDS011;8244;50.044;9.006;2022-07-23T09:52:01;5.43;;;3.92;;
16272;SDS011;8244;50.044;9.006;2022-07-23T09:57:04;7.47;;;4.13;;
16272;SDS011;8244;50.044;9.006;2022-07-23T10:02:10;4.95;;;4.00;;
16272;SDS011;8244;50.044;9.006;2022-07-23T10:07:13;6.38;;;3.90;;
16272;SDS011;8244;50.044;9.006;2022-07-23T10:12:18;5.63;;;3.90;;
16272;SDS011;8244;50.044;9.006;2022-07-23T10:17:30;8.40;;;4.28;;
16272;SDS011;8244;50.044;9.006;2022-07-23T10:22:33;4.72;;;3.78;;
16272;SDS011;8244;50.044;9.006;2022-07-23T10:27:53;6.43;;;3.75;;
16272;SDS011;8244;50.044;9.006;2022-07-23T10:33:15;6.25;;;4.00;;
16272;SDS011;8244;50.044;9.006;2022-07-23T10:38:25;8.85;;;4.03;;
16272;SDS011;8244;50.044;9.006;2022-07-23T10:43:31;6.78;;;4.13;;
16272;SDS011;8244;50.044;9.006;2022-07-23T10:48:34;5.53;;;3.80;;
16272;SDS011;8244;50.044;9.006;2022-07-23T10:53:55;4.82;;;3.60;;
16272;SDS011;8244;50.044;9.006;2022-07-23T10:58:59;4.43;;;3.42;;
16272;SDS011;8244;50.044;9.006;2022-07-23T11:04:06;5.72;;;3.30;;
16272;SDS011;8244;50.044;9.006;2022-07-23T11:09:23;7.32;;;3.33;;
16272;SDS011;8244;50.044;9.006;2022-07-23T11:20:14;5.13;;;3.70;;
16272;SDS011;8244;50.044;9.006;2022-07-23T11:25:31;5.35;;;3.70;;
16272;SDS011;8244;50.044;9.006;2022-07-23T11:30:39;4.85;;;3.78;;
16272;SDS011;8244;50.044;9.006;2022-07-23T11:35:44;5.30;;;3.38;;
16272;SDS011;8244;50.044;9.006;2022-07-23T11:40:47;6.97;;;3.70;;
16272;SDS011;8244;50.044;9.006;2022-07-23T11:45:51;4.40;;;3.30;;
16272;SDS011;8244;50.044;9.006;2022-07-23T11:50:56;4.20;;;3.30;;
16272;SDS011;8244;50.044;9.006;2022-07-23T11:56:03;3.50;;;3.13;;
16272;SDS011;8244;50.044;9.006;2022-07-23T12:01:05;5.88;;;3.45;;
16272;SDS011;8244;50.044;9.006;2022-07-23T12:06:09;5.50;;;3.13;;
16272;SDS011;8244;50.044;9.006;2022-07-23T12:11:11;4.05;;;3.00;;
16272;SDS011;8244;50.044;9.006;2022-07-23T12:16:13;4.00;;;2.90;;
16272;SDS011;8244;50.044;9.006;2022-07-23T12:21:16;7.35;;;3.25;;
16272;SDS011;8244;50.044;9.006;2022-07-23T12:26:18;5.82;;;3.70;;
16272;SDS011;8244;50.044;9.006;2022-07-23T12:31:25;5.03;;;3.40;;
16272;SDS011;8244;50.044;9.006;2022-07-23T12:36:37;5.60;;;3.63;;
16272;SDS011;8244;50.044;9.006;2022-07-23T12:41:52;3.88;;;3.20;;
16272;SDS011;8244;50.044;9.006;2022-07-23T12:46:56;4.72;;;3.28;;
16272;SDS011;8244;50.044;9.006;2022-07-23T12:51:59;5.57;;;3.30;;
16272;SDS011;8244;50.044;9.006;2022-07-23T12:57:01;4.85;;;3.20;;
16272;SDS011;8244;50.044;9.006;2022-07-23T13:02:03;6.53;;;3.17;;
16272;SDS011;8244;50.044;9.006;2022-07-23T13:07:06;4.30;;;3.42;;
16272;SDS011;8244;50.044;9.006;2022-07-23T13:12:08;3.72;;;3.00;;
16272;SDS011;8244;50.044;9.006;2022-07-23T13:17:10;4.90;;;3.10;;
16272;SDS011;8244;50.044;9.006;2022-07-23T13:22:13;5.18;;;2.88;;
16272;SDS011;8244;50.044;9.006;2022-07-23T13:27:14;4.65;;;3.35;;
16272;SDS011;8244;50.044;9.006;2022-07-23T13:32:16;5.55;;;3.15;;
16272;SDS011;8244;50.044;9.006;2022-07-23T13:37:19;6.22;;;3.58;;
16272;SDS011;8244;50.044;9.006;2022-07-23T13:42:21;5.22;;;3.53;;
16272;SDS011;8244;50.044;9.006;2022-07-23T13:47:23;5.57;;;3.30;;
16272;SDS011;8244;50.044;9.006;2022-07-23T13:52:26;5.18;;;3.17;;
16272;SDS011;8244;50.044;9.006;2022-07-23T13:57:28;6.05;;;3.22;;
16272;SDS011;8244;50.044;9.006;2022-07-23T14:02:29;4.88;;;3.30;;
16272;SDS011;8244;50.044;9.006;2022-07-23T14:07:33;4.80;;;3.30;;
16272;SDS011;8244;50.044;9.006;2022-07-23T14:12:35;4.75;;;3.33;;
16272;SDS011;8244;50.044;9.006;2022-07-23T14:17:37;7.07;;;3.60;;
16272;SDS011;8244;50.044;9.006;2022-07-23T14:22:41;4.38;;;3.30;;
16272;SDS011;8244;50.044;9.006;2022-07-23T14:27:43;7.40;;;3.50;;
16272;SDS011;8244;50.044;9.006;2022-07-23T14:32:46;12.40;;;3.72;;
16272;SDS011;8244;50.044;9.006;2022-07-23T14:37:49;5.63;;;3.58;;
16272;SDS011;8244;50.044;9.006;2022-07-23T14:42:51;5.03;;;3.60;;
16272;SDS011;8244;50.044;9.006;2022-07-23T14:47:53;3.85;;;3.10;;
16272;SDS011;8244;50.044;9.006;2022-07-23T14:52:56;5.97;;;3.55;;
16272;SDS011;8244;50.044;9.006;2022-07-23T14:57:58;5.40;;;3.50;;
16272;SDS011;8244;50.044;9.006;2022-07-23T15:03:00;4.97;;;3.50;;
16272;SDS011;8244;50.044;9.006;2022-07-23T15:08:03;3.78;;;3.15;;
16272;SDS011;8244;50.044;9.006;2022-07-23T15:13:05;5.82;;;3.80;;
16272;SDS011;8244;50.044;9.006;2022-07-23T15:18:07;5.30;;;3.28;;
16272;SDS011;8244;50.044;9.006;2022-07-23T15:23:10;5.22;;;3.45;;
16272;SDS011;8244;50.044;9.006;2022-07-23T15:28:12;5.72;;;3.58;;
16272;SDS011;8244;50.044;9.006;2022-07-23T15:33:13;6.22;;;3.58;;
16272;SDS011;8244;50.044;9.006;2022-07-23T15:38:16;5.70;;;3.53;;
16272;SDS011;8244;50.044;9.006;2022-07-23T15:43:18;4.30;;;3.45;;
16272;SDS011;8244;50.044;9.006;2022-07-23T15:48:20;6.78;;;3.80;;
16272;SDS011;8244;50.044;9.006;2022-07-23T15:53:24;5.35;;;3.40;;
16272;SDS011;8244;50.044;9.006;2022-07-23T15:58:26;6.28;;;3.60;;
16272;SDS011;8244;50.044;9.006;2022-07-23T16:03:30;5.13;;;3.60;;
16272;SDS011;8244;50.044;9.006;2022-07-23T16:08:33;3.92;;;3.53;;
16272;SDS011;8244;50.044;9.006;2022-07-23T16:13:35;5.38;;;3.70;;
16272;SDS011;8244;50.044;9.006;2022-07-23T16:18:38;5.53;;;3.88;;
16272;SDS011;8244;50.044;9.006;2022-07-23T16:23:41;6.00;;;3.80;;
16272;SDS011;8244;50.044;9.006;2022-07-23T16:28:44;9.80;;;4.13;;
16272;SDS011;8244;50.044;9.006;2022-07-23T16:33:45;7.65;;;4.53;;
16272;SDS011;8244;50.044;9.006;2022-07-23T16:38:49;7.88;;;4.20;;
16272;SDS011;8244;50.044;9.006;2022-07-23T16:43:50;6.95;;;3.92;;
16272;SDS011;8244;50.044;9.006;2022-07-23T16:48:52;7.57;;;4.18;;
16272;SDS011;8244;50.044;9.006;2022-07-23T16:53:55;6.55;;;3.90;;
16272;SDS011;8244;50.044;9.006;2022-07-23T16:58:58;4.97;;;3.55;;
16272;SDS011;8244;50.044;9.006;2022-07-23T17:03:59;6.32;;;3.65;;
16272;SDS011;8244;50.044;9.006;2022-07-23T17:09:03;7.00;;;3.65;;
16272;SDS011;8244;50.044;9.006;2022-07-23T17:14:05;5.05;;;3.42;;
16272;SDS011;8244;50.044;9.006;2022-07-23T17:19:07;7.18;;;3.55;;
16272;SDS011;8244;50.044;9.006;2022-07-23T17:24:10;5.05;;;3.30;;
16272;SDS011;8244;50.044;9.006;2022-07-23T17:29:12;8.80;;;3.70;;
16272;SDS011;8244;50.044;9.006;2022-07-23T17:34:14;4.65;;;3.47;;
16272;SDS011;8244;50.044;9.006;2022-07-23T17:39:18;5.82;;;3.22;;
16272;SDS011;8244;50.044;9.006;2022-07-23T17:44:19;4.72;;;3.55;;
16272;SDS011;8244;50.044;9.006;2022-07-23T17:49:21;6.68;;;3.05;;
16272;SDS011;8244;50.044;9.006;2022-07-23T17:54:24;4.50;;;3.20;;
16272;SDS011;8244;50.044;9.006;2022-07-23T17:59:26;5.15;;;3.28;;
16272;SDS011;8244;50.044;9.006;2022-07-23T18:04:29;5.40;;;3.20;;
16272;SDS011;8244;50.044;9.006;2022-07-23T18:09:32;4.28;;;3.17;;
16272;SDS011;8244;50.044;9.006;2022-07-23T18:14:34;5.70;;;3.15;;
16272;SDS011;8244;50.044;9.006;2022-07-23T18:19:36;5.45;;;3.70;;
16272;SDS011;8244;50.044;9.006;2022-07-23T18:24:39;4.28;;;2.90;;
16272;SDS011;8244;50.044;9.006;2022-07-23T18:29:41;3.95;;;2.67;;
16272;SDS011;8244;50.044;9.006;2022-07-23T18:34:44;4.13;;;3.10;;
16272;SDS011;8244;50.044;9.006;2022-07-23T18:39:47;4.65;;;3.20;;
16272;SDS011;8244;50.044;9.006;2022-07-23T18:44:49;7.07;;;4.78;;
16272;SDS011;8244;50.044;9.006;2022-07-23T18:49:51;4.03;;;3.00;;
16272;SDS011;8244;50.044;9.006;2022-07-23T18:54:54;5.00;;;2.90;;
16272;SDS011;8244;50.044;9.006;2022-07-23T18:59:56;3.67;;;2.88;;
16272;SDS011;8244;50.044;9.006;2022-07-23T19:04:57;5.88;;;2.97;;
16272;SDS011;8244;50.044;9.006;2022-07-23T19:10:01;3.38;;;2.90;;
16272;SDS011;8244;50.044;9.006;2022-07-23T19:15:05;4.97;;;3.70;;
16272;SDS011;8244;50.044;9.006;2022-07-23T19:20:07;6.70;;;3.08;;
16272;SDS011;8244;50.044;9.006;2022-07-23T19:25:12;5.18;;;3.17;;
16272;SDS011;8244;50.044;9.006;2022-07-23T19:30:13;6.05;;;3.10;;
16272;SDS011;8244;50.044;9.006;2022-07-23T19:35:15;5.15;;;3.10;;
16272;SDS011;8244;50.044;9.006;2022-07-23T19:40:18;6.60;;;3.05;;
16272;SDS011;8244;50.044;9.006;2022-07-23T19:45:20;4.63;;;3.13;;
16272;SDS011;8244;50.044;9.006;2022-07-23T19:50:22;4.82;;;3.08;;
16272;SDS011;8244;50.044;9.006;2022-07-23T19:55:25;5.18;;;3.28;;
16272;SDS011;8244;50.044;9.006;2022-07-23T20:00:27;3.58;;;2.88;;
16272;SDS011;8244;50.044;9.006;2022-07-23T20:05:29;4.72;;;3.28;;
16272;SDS011;8244;50.044;9.006;2022-07-23T20:10:32;4.13;;;3.00;;
16272;SDS011;8244;50.044;9.006;2022-07-23T20:15:34;5.13;;;3.28;;
16272;SDS011;8244;50.044;9.006;2022-07-23T20:20:36;7.05;;;3.65;;
16272;SDS011;8244;50.044;9.006;2022-07-23T20:25:39;4.03;;;3.00;;
16272;SDS011;8244;50.044;9.006;2022-07-23T20:30:40;6.93;;;3.30;;
16272;SDS011;8244;50.044;9.006;2022-07-23T20:35:45;6.53;;;3.50;;
16272;SDS011;8244;50.044;9.006;2022-07-23T20:40:48;4.30;;;3.20;;
16272;SDS011;8244;50.044;9.006;2022-07-23T20:45:50;4.60;;;3.15;;
16272;SDS011;8244;50.044;9.006;2022-07-23T20:50:52;5.22;;;3.22;;
16272;SDS011;8244;50.044;9.006;2022-07-23T20:55:55;4.75;;;3.53;;
16272;SDS011;8244;50.044;9.006;2022-07-23T21:00:59;5.80;;;3.40;;
16272;SDS011;8244;50.044;9.006;2022-07-23T21:06:00;4.68;;;2.95;;
16272;SDS011;8244;50.044;9.006;2022-07-23T21:11:05;5.32;;;3.60;;
16272;SDS011;8244;50.044;9.006;2022-07-23T21:16:07;4.70;;;3.20;;
16272;SDS011;8244;50.044;9.006;2022-07-23T21:21:08;5.95;;;3.55;;
16272;SDS011;8244;50.044;9.006;2022-07-23T21:26:14;7.07;;;3.38;;
16272;SDS011;8244;50.044;9.006;2022-07-23T21:31:17;5.95;;;3.85;;
16272;SDS011;8244;50.044;9.006;2022-07-23T21:36:20;5.18;;;3.67;;
16272;SDS011;8244;50.044;9.006;2022-07-23T21:41:23;6.00;;;3.80;;
16272;SDS011;8244;50.044;9.006;2022-07-23T21:46:28;7.57;;;4.22;;
16272;SDS011;8244;50.044;9.006;2022-07-23T21:51:31;6.43;;;3.75;;
16272;SDS011;8244;50.044;9.006;2022-07-23T21:56:34;5.53;;;3.97;;
16272;SDS011;8244;50.044;9.006;2022-07-23T22:01:36;6.22;;;3.65;;
16272;SDS011;8244;50.044;9.006;2022-07-23T22:06:38;4.38;;;3.50;;
16272;SDS011;8244;50.044;9.006;2022-07-23T22:11:41;8.38;;;4.18;;
16272;SDS011;8244;50.044;9.006;2022-07-23T22:16:43;6.07;;;3.90;;
16272;SDS011;8244;50.044;9.006;2022-07-23T22:21:45;6.60;;;3.75;;
16272;SDS011;8244;50.044;9.006;2022-07-23T22:26:48;6.22;;;4.30;;
16272;SDS011;8244;50.044;9.006;2022-07-23T22:31:50;7.38;;;4.22;;
16272;SDS011;8244;50.044;9.006;2022-07-23T22:36:51;7.07;;;4.30;;
16272;SDS011;8244;50.044;9.006;2022-07-23T22:41:54;8.23;;;4.30;;
16272;SDS011;8244;50.044;9.006;2022-07-23T22:46:56;7.88;;;4.18;;
16272;SDS011;8244;50.044;9.006;2022-07-23T22:51:58;6.68;;;4.30;;
16272;SDS011;8244;50.044;9.006;2022-07-23T22:57:01;7.55;;;4.50;;
16272;SDS011;8244;50.044;9.006;2022-07-23T23:02:03;8.85;;;4.80;;
16272;SDS011;8244;50.044;9.006;2022-07-23T23:07:05;5.35;;;4.28;;
16272;SDS011;8244;50.044;9.006;2022-07-23T23:12:08;7.25;;;3.78;;
16272;SDS011;8244;50.044;9.006;2022-07-23T23:17:10;7.15;;;4.03;;
16272;SDS011;8244;50.044;9.006;2022-07-23T23:22:12;8.85;;;4.20;;
16272;SDS011;8244;50.044;9.006;2022-07-23T23:27:15;8.30;;;4.50;;
16272;SDS011;8244;50.044;9.006;2022-07-23T23:32:17;7.00;;;4.53;;
16272;SDS011;8244;50.044;9.006;2022-07-23T23:37:18;7.05;;;4.03;;
16272;SDS011;8244;50.044;9.006;2022-07-23T23:42:22;5.93;;;4.30;;
16272;SDS011;8244;50.044;9.006;2022-07-23T23:47:23;4.25;;;3.67;;
16272;SDS011;8244;50.044;9.006;2022-07-23T23:52:25;6.53;;;4.30;;
16272;SDS011;8244;50.044;9.006;2022-07-23T23:57:28;9.00;;;3.70;;
